createdAt,value
2018-07-13T00:02:27.144Z,24.00
2018-07-13T00:04:55.591Z,24.00
2018-07-13T00:07:24.075Z,24.00
2018-07-13T00:09:52.498Z,24.00
2018-07-13T00:12:20.910Z,24.00
2018-07-13T00:15:00.335Z,24.00
2018-07-13T00:17:30.069Z,23.90
2018-07-13T00:19:59.572Z,24.00
2018-07-13T00:22:28.696Z,23.90
2018-07-13T00:24:57.109Z,24.00
2018-07-13T00:27:25.515Z,24.00
2018-07-13T00:29:54.209Z,24.00
2018-07-13T00:32:22.633Z,24.00
2018-07-13T00:34:51.051Z,23.90
2018-07-13T00:37:19.596Z,23.90
2018-07-13T00:39:48.014Z,23.90
2018-07-13T00:42:16.493Z,23.90
2018-07-13T00:44:44.910Z,23.90
2018-07-13T00:47:13.326Z,23.90
2018-07-13T00:49:41.736Z,23.90
2018-07-13T00:52:10.161Z,23.90
2018-07-13T00:54:38.579Z,23.90
2018-07-13T00:57:06.999Z,23.90
2018-07-13T00:59:35.423Z,23.90
2018-07-13T01:02:04.290Z,23.90
2018-07-13T01:04:32.703Z,23.90
2018-07-13T01:07:01.941Z,23.90
2018-07-13T01:09:31.041Z,23.90
2018-07-13T01:12:00.039Z,23.90
2018-07-13T01:14:29.571Z,23.90
2018-07-13T01:16:58.686Z,23.90
2018-07-13T01:19:27.105Z,23.90
2018-07-13T01:21:55.556Z,23.90
2018-07-13T01:24:23.970Z,23.90
2018-07-13T01:26:52.387Z,23.90
2018-07-13T01:29:20.807Z,23.90
2018-07-13T01:31:49.213Z,23.90
2018-07-13T01:34:17.705Z,23.90
2018-07-13T01:36:46.115Z,23.90
2018-07-13T01:39:14.540Z,23.90
2018-07-13T01:41:42.955Z,23.90
2018-07-13T01:44:11.370Z,23.90
2018-07-13T01:46:39.782Z,23.90
2018-07-13T01:49:08.216Z,23.80
2018-07-13T01:51:36.617Z,23.80
2018-07-13T01:54:05.065Z,23.80
2018-07-13T01:56:33.500Z,23.80
2018-07-13T01:59:01.955Z,23.80
2018-07-13T02:01:31.439Z,23.80
2018-07-13T02:04:00.769Z,23.80
2018-07-13T02:06:29.631Z,23.80
2018-07-13T02:08:58.761Z,23.80
2018-07-13T02:11:27.198Z,23.80
2018-07-13T02:13:55.646Z,23.80
2018-07-13T02:16:24.058Z,23.80
2018-07-13T02:18:52.471Z,23.80
2018-07-13T02:21:20.892Z,23.80
2018-07-13T02:23:49.314Z,23.80
2018-07-13T02:26:18.240Z,23.80
2018-07-13T02:28:46.660Z,23.80
2018-07-13T02:31:15.078Z,23.80
2018-07-13T02:36:11.647Z,23.80
2018-07-13T02:38:40.069Z,23.80
2018-07-13T02:41:08.500Z,23.80
2018-07-13T02:43:37.068Z,23.80
2018-07-13T02:46:05.783Z,23.80
2018-07-13T02:48:34.191Z,23.80
2018-07-13T02:51:02.642Z,23.80
2018-07-13T02:53:31.950Z,23.80
2018-07-13T02:56:01.751Z,23.80
2018-07-13T02:58:30.306Z,23.70
2018-07-13T03:00:59.227Z,23.80
2018-07-13T03:03:27.678Z,23.70
2018-07-13T03:05:56.134Z,23.70
2018-07-13T03:08:24.551Z,23.70
2018-07-13T03:10:53.070Z,23.70
2018-07-13T03:13:21.541Z,23.80
2018-07-13T03:15:50.073Z,23.70
2018-07-13T03:18:18.506Z,23.70
2018-07-13T03:20:46.931Z,23.70
2018-07-13T03:23:15.352Z,23.70
2018-07-13T03:25:43.782Z,23.70
2018-07-13T03:28:12.216Z,23.70
2018-07-13T03:30:40.645Z,23.70
2018-07-13T03:33:09.287Z,23.70
2018-07-13T03:35:37.698Z,23.70
2018-07-13T03:38:06.684Z,23.70
2018-07-13T03:40:35.108Z,23.70
2018-07-13T03:43:03.531Z,23.70
2018-07-13T03:48:00.788Z,23.70
2018-07-13T03:50:29.682Z,23.70
2018-07-13T03:52:58.764Z,23.70
2018-07-13T03:55:27.218Z,23.70
2018-07-13T03:57:55.815Z,23.70
2018-07-13T04:00:24.246Z,23.70
2018-07-13T04:02:52.696Z,23.70
2018-07-13T04:05:21.346Z,23.70
2018-07-13T04:07:49.926Z,23.70
2018-07-13T04:10:18.350Z,23.70
2018-07-13T04:12:46.808Z,23.70
2018-07-13T04:15:15.420Z,23.70
2018-07-13T04:17:43.840Z,23.70
2018-07-13T04:20:12.367Z,23.70
2018-07-13T04:22:40.781Z,23.70
2018-07-13T04:25:09.185Z,23.70
2018-07-13T04:27:38.049Z,23.70
2018-07-13T04:30:07.180Z,23.70
2018-07-13T04:32:35.707Z,23.70
2018-07-13T04:35:04.136Z,23.70
2018-07-13T04:37:32.616Z,23.70
2018-07-13T04:40:01.607Z,23.70
2018-07-13T04:42:31.185Z,23.70
2018-07-13T04:45:00.385Z,23.70
2018-07-13T04:47:29.653Z,23.70
2018-07-13T04:49:58.616Z,23.70
2018-07-13T04:52:27.889Z,23.70
2018-07-13T04:54:56.314Z,23.70
2018-07-13T04:57:26.686Z,23.70
2018-07-13T04:59:55.293Z,23.70
2018-07-13T05:02:24.246Z,23.70
2018-07-13T05:04:52.746Z,23.70
2018-07-13T05:07:21.228Z,23.70
2018-07-13T05:09:49.655Z,23.70
2018-07-13T05:12:18.283Z,23.70
2018-07-13T05:14:46.844Z,23.70
2018-07-13T05:17:16.373Z,23.70
2018-07-13T05:19:44.808Z,23.70
2018-07-13T05:24:41.373Z,23.70
2018-07-13T05:27:09.785Z,23.70
2018-07-13T05:29:38.358Z,23.70
2018-07-13T05:32:06.827Z,23.70
2018-07-13T05:34:35.236Z,23.70
2018-07-13T05:37:03.742Z,23.70
2018-07-13T05:39:32.526Z,23.80
2018-07-13T05:42:01.695Z,23.70
2018-07-13T05:44:31.338Z,23.70
2018-07-13T05:47:01.219Z,23.70
2018-07-13T05:49:30.756Z,23.80
2018-07-13T05:51:59.658Z,23.80
2018-07-13T05:54:28.864Z,23.80
2018-07-13T05:56:57.304Z,23.80
2018-07-13T05:59:25.770Z,23.80
2018-07-13T06:01:54.214Z,23.80
2018-07-13T06:04:22.741Z,23.80
2018-07-13T06:06:51.176Z,23.80
2018-07-13T06:09:19.605Z,23.80
2018-07-13T06:11:48.031Z,23.80
2018-07-13T06:14:16.454Z,23.80
2018-07-13T06:16:44.865Z,23.80
2018-07-13T06:19:13.301Z,23.80
2018-07-13T06:21:41.764Z,23.80
2018-07-13T06:24:10.189Z,23.80
2018-07-13T06:26:38.611Z,23.80
2018-07-13T06:29:07.050Z,23.80
2018-07-13T06:31:35.564Z,23.80
2018-07-13T06:34:03.946Z,23.80
2018-07-13T06:36:32.547Z,23.90
2018-07-13T06:39:02.397Z,23.80
2018-07-13T06:41:30.926Z,23.90
2018-07-13T06:44:00.107Z,23.90
2018-07-13T06:46:29.662Z,23.90
2018-07-13T06:48:58.699Z,23.90
2018-07-13T06:51:27.118Z,23.90
2018-07-13T06:53:55.611Z,23.90
2018-07-13T06:56:24.195Z,23.90
2018-07-13T06:59:04.619Z,23.90
2018-07-13T07:01:33.028Z,23.90
2018-07-13T07:04:35.829Z,24.00
2018-07-13T07:07:10.964Z,24.00
2018-07-13T07:09:40.363Z,24.10
2018-07-13T07:13:18.450Z,24.10
2018-07-13T07:15:46.978Z,24.10
2018-07-13T07:18:15.404Z,24.20
2018-07-13T07:20:43.823Z,24.20
2018-07-13T07:23:12.246Z,24.30
2018-07-13T07:25:40.658Z,24.30
2018-07-13T07:28:09.076Z,24.30
2018-07-13T07:30:37.558Z,24.30
2018-07-13T07:33:06.013Z,24.30
2018-07-13T07:35:34.425Z,24.30
2018-07-13T07:38:02.904Z,24.30
2018-07-13T07:40:31.372Z,24.30
2018-07-13T07:43:01.242Z,24.40
2018-07-13T07:45:30.810Z,24.40
2018-07-13T07:47:59.478Z,24.40
2018-07-13T07:50:27.906Z,24.40
2018-07-13T07:52:57.212Z,24.40
2018-07-13T07:55:25.642Z,24.40
2018-07-13T07:57:54.067Z,24.40
2018-07-13T08:00:22.486Z,24.40
2018-07-13T08:02:50.943Z,24.40
2018-07-13T08:05:19.477Z,24.40
2018-07-13T08:07:47.853Z,24.40
2018-07-13T08:10:16.268Z,24.50
2018-07-13T08:12:44.685Z,24.50
2018-07-13T08:15:13.094Z,24.50
2018-07-13T08:17:41.519Z,24.50
2018-07-13T08:20:10.005Z,24.50
2018-07-13T08:22:40.384Z,24.50
2018-07-13T08:25:11.561Z,24.50
2018-07-13T08:27:49.546Z,24.50
2018-07-13T08:30:24.859Z,24.50
2018-07-13T08:32:53.395Z,24.50
2018-07-13T08:35:21.814Z,24.50
2018-07-13T08:37:50.314Z,24.50
2018-07-13T08:40:18.678Z,24.50
2018-07-13T08:42:47.096Z,24.60
2018-07-13T08:45:15.545Z,24.60
2018-07-13T08:47:43.974Z,24.60
2018-07-13T08:50:12.874Z,24.60
2018-07-13T08:52:41.296Z,24.60
2018-07-13T08:55:14.166Z,24.60
2018-07-13T08:57:45.588Z,24.60
2018-07-13T09:00:14.021Z,24.60
2018-07-13T09:02:44.379Z,24.60
2018-07-13T09:05:12.810Z,24.60
2018-07-13T09:07:41.240Z,24.60
2018-07-13T09:10:11.659Z,24.60
2018-07-13T09:12:40.466Z,24.60
2018-07-13T09:15:09.703Z,24.70
2018-07-13T09:17:38.164Z,24.70
2018-07-13T09:20:08.252Z,24.70
2018-07-13T09:22:36.682Z,24.70
2018-07-13T09:25:05.275Z,24.70
2018-07-13T09:27:33.713Z,24.70
2018-07-13T09:30:02.136Z,24.70
2018-07-13T09:32:31.762Z,24.70
2018-07-13T09:35:00.237Z,24.70
2018-07-13T09:37:28.769Z,24.70
2018-07-13T09:39:57.191Z,24.80
2018-07-13T09:42:25.622Z,24.80
2018-07-13T09:44:54.054Z,24.80
2018-07-13T09:47:22.733Z,24.80
2018-07-13T09:49:51.303Z,24.80
2018-07-13T09:52:19.840Z,24.80
2018-07-13T09:54:48.290Z,24.80
2018-07-13T09:57:16.843Z,24.80
2018-07-13T09:59:45.494Z,24.80
2018-07-13T10:02:13.928Z,24.80
2018-07-13T10:04:44.262Z,24.80
2018-07-13T10:07:12.741Z,24.80
2018-07-13T10:09:41.181Z,24.90
2018-07-13T10:12:09.755Z,24.80
2018-07-13T10:14:38.198Z,24.90
2018-07-13T10:17:06.616Z,24.80
2018-07-13T10:19:35.101Z,24.80
2018-07-13T10:22:03.529Z,24.90
2018-07-13T10:24:33.117Z,24.90
2018-07-13T10:27:01.571Z,24.80
2018-07-13T10:29:35.557Z,24.90
2018-07-13T10:32:04.281Z,24.90
2018-07-13T10:34:33.265Z,24.90
2018-07-13T10:37:04.712Z,24.90
2018-07-13T10:39:34.053Z,24.90
2018-07-13T10:42:02.544Z,24.90
2018-07-13T10:44:31.257Z,24.90
2018-07-13T10:47:00.570Z,24.90
2018-07-13T10:49:29.592Z,24.90
2018-07-13T10:51:58.927Z,25.00
2018-07-13T10:54:27.554Z,24.90
2018-07-13T10:56:56.075Z,25.00
2018-07-13T10:59:24.470Z,24.90
2018-07-13T11:01:52.895Z,24.90
2018-07-13T11:04:21.466Z,24.90
2018-07-13T11:06:50.042Z,24.90
2018-07-13T11:09:18.492Z,24.90
2018-07-13T11:11:47.103Z,24.90
2018-07-13T11:14:15.518Z,24.90
2018-07-13T11:16:43.943Z,24.90
2018-07-13T11:19:12.811Z,24.90
2018-07-13T11:21:41.516Z,24.90
2018-07-13T11:24:09.988Z,24.90
2018-07-13T11:26:39.448Z,24.90
2018-07-13T11:29:07.911Z,24.90
2018-07-13T11:31:36.330Z,24.90
2018-07-13T11:34:04.842Z,25.00
2018-07-13T11:39:07.941Z,25.00
2018-07-13T11:41:36.398Z,25.00
2018-07-13T11:44:05.218Z,25.00
2018-07-13T11:46:33.742Z,25.00
2018-07-13T11:49:02.750Z,25.00
2018-07-13T11:51:31.660Z,25.00
2018-07-13T11:54:00.978Z,24.90
2018-07-13T11:56:30.978Z,24.90
2018-07-13T11:59:00.587Z,25.00
2018-07-13T12:01:29.640Z,25.00
2018-07-13T12:03:58.742Z,25.00
2018-07-13T12:06:28.637Z,25.00
2018-07-13T12:08:57.201Z,25.00
2018-07-13T12:11:25.634Z,25.00
2018-07-13T12:13:54.062Z,25.00
2018-07-13T12:16:22.474Z,25.00
2018-07-13T12:18:50.908Z,25.00
2018-07-13T12:21:19.344Z,25.00
2018-07-13T12:23:47.762Z,25.00
2018-07-13T12:26:16.195Z,25.10
2018-07-13T12:28:44.621Z,25.00
2018-07-13T12:31:13.179Z,25.10
2018-07-13T12:33:41.851Z,25.10
2018-07-13T12:36:10.442Z,25.10
2018-07-13T12:38:38.910Z,25.10
2018-07-13T12:41:07.516Z,25.20
2018-07-13T12:43:36.249Z,25.10
2018-07-13T12:46:04.939Z,25.20
2018-07-13T12:48:36.271Z,25.20
2018-07-13T12:51:04.995Z,25.20
2018-07-13T12:53:33.435Z,25.20
2018-07-13T12:56:02.611Z,25.20
2018-07-13T12:58:31.408Z,25.20
2018-07-13T13:01:01.299Z,25.20
2018-07-13T13:03:31.925Z,25.20
2018-07-13T13:06:01.232Z,25.20
2018-07-13T13:08:31.246Z,25.30
2018-07-13T13:11:00.668Z,25.30
2018-07-13T13:13:29.630Z,25.30
2018-07-13T13:15:58.757Z,25.30
2018-07-13T13:18:27.206Z,25.30
2018-07-13T13:20:55.630Z,25.30
2018-07-13T13:23:24.586Z,25.40
2018-07-13T13:25:53.195Z,25.40
2018-07-13T13:28:21.618Z,25.40
2018-07-13T13:30:50.105Z,25.40
2018-07-13T13:33:18.649Z,25.40
2018-07-13T13:35:47.094Z,25.40
2018-07-13T13:38:15.536Z,25.40
2018-07-13T13:40:43.962Z,25.40
2018-07-13T13:43:12.586Z,25.40
2018-07-13T13:45:41.025Z,25.40
2018-07-13T13:48:09.479Z,25.40
2018-07-13T13:50:38.249Z,25.40
2018-07-13T13:53:07.182Z,25.40
2018-07-13T13:55:35.634Z,25.40
2018-07-13T14:01:37.804Z,25.50
2018-07-13T14:04:06.429Z,25.40
2018-07-13T14:06:35.023Z,25.40
2018-07-13T14:09:11.381Z,25.40
2018-07-13T14:11:40.042Z,25.50
2018-07-13T14:14:08.509Z,25.40
2018-07-13T14:16:37.147Z,25.50
2018-07-13T14:19:06.106Z,25.50
2018-07-13T14:21:34.540Z,25.50
2018-07-13T14:24:03.164Z,25.50
2018-07-13T14:26:32.053Z,25.50
2018-07-13T14:29:01.702Z,25.50
2018-07-13T14:31:31.124Z,25.40
2018-07-13T14:34:01.186Z,25.50
2018-07-13T14:36:30.332Z,25.50
2018-07-13T14:39:00.065Z,25.50
2018-07-13T14:41:29.188Z,25.50
2018-07-13T14:43:57.638Z,25.50
2018-07-13T14:46:26.090Z,25.40
2018-07-13T14:48:54.525Z,25.50
2018-07-13T14:51:22.945Z,25.50
2018-07-13T14:53:51.417Z,25.40
2018-07-13T14:56:21.002Z,25.40
2018-07-13T14:58:49.503Z,25.40
2018-07-13T15:01:17.937Z,25.40
2018-07-13T15:03:46.369Z,25.40
2018-07-13T15:06:15.035Z,25.40
2018-07-13T15:08:43.291Z,25.40
2018-07-13T15:11:11.730Z,25.40
2018-07-13T15:13:40.159Z,25.40
2018-07-13T15:16:08.755Z,25.40
2018-07-13T15:18:37.212Z,25.40
2018-07-13T15:21:05.672Z,25.40
2018-07-13T15:23:34.398Z,25.40
2018-07-13T15:26:02.842Z,25.40
2018-07-13T15:28:31.301Z,25.40
2018-07-13T15:31:00.693Z,25.40
2018-07-13T15:33:29.739Z,25.40
2018-07-13T15:35:58.637Z,25.40
2018-07-13T15:38:27.109Z,25.40
2018-07-13T15:40:55.625Z,25.40
2018-07-13T15:43:24.370Z,25.40
2018-07-13T15:45:53.187Z,25.40
2018-07-13T15:48:21.861Z,25.40
2018-07-13T15:50:50.290Z,25.40
2018-07-13T15:53:19.051Z,25.40
2018-07-13T15:55:53.076Z,25.40
2018-07-13T15:58:21.727Z,25.40
2018-07-13T16:00:50.201Z,25.30
2018-07-13T16:03:18.957Z,25.40
2018-07-13T16:05:47.687Z,25.40
2018-07-13T16:08:16.176Z,25.40
2018-07-13T16:10:44.734Z,25.30
2018-07-13T16:13:13.253Z,25.30
2018-07-13T16:15:41.725Z,25.40
2018-07-13T16:18:10.547Z,25.30
2018-07-13T16:20:38.978Z,25.30
2018-07-13T16:23:07.406Z,25.30
2018-07-13T16:25:35.942Z,25.30
2018-07-13T16:28:04.383Z,25.30
2018-07-13T16:30:33.288Z,25.30
2018-07-13T16:33:01.733Z,25.30
2018-07-13T16:37:59.761Z,25.30
2018-07-13T16:40:28.725Z,25.30
2018-07-13T16:42:57.169Z,25.30
2018-07-13T16:45:25.690Z,25.30
2018-07-13T16:47:54.128Z,25.30
2018-07-13T16:50:22.705Z,25.30
2018-07-13T16:52:51.200Z,25.30
2018-07-13T16:55:19.642Z,25.30
2018-07-13T16:57:48.090Z,25.20
2018-07-13T17:00:17.089Z,25.30
2018-07-13T17:05:14.141Z,25.20
2018-07-13T17:07:42.589Z,25.20
2018-07-13T17:10:11.207Z,25.20
2018-07-13T17:12:39.708Z,25.20
2018-07-13T17:15:08.409Z,25.20
2018-07-13T17:17:36.855Z,25.20
2018-07-13T17:20:06.076Z,25.20
2018-07-13T17:22:34.702Z,25.20
2018-07-13T17:25:03.153Z,25.20
2018-07-13T17:27:32.024Z,25.20
2018-07-13T17:30:01.263Z,25.20
2018-07-13T17:32:30.409Z,25.20
2018-07-13T17:34:59.612Z,25.20
2018-07-13T17:37:29.035Z,25.20
2018-07-13T17:39:57.851Z,25.20
2018-07-13T17:42:26.623Z,25.20
2018-07-13T17:44:55.747Z,25.10
2018-07-13T17:47:24.331Z,25.10
2018-07-13T17:49:53.081Z,25.20
2018-07-13T17:52:21.582Z,25.10
2018-07-13T17:54:50.063Z,25.10
2018-07-13T17:57:18.704Z,25.10
2018-07-13T17:59:47.258Z,25.10
2018-07-13T18:02:15.952Z,25.10
2018-07-13T18:04:44.645Z,25.10
2018-07-13T18:07:13.109Z,25.10
2018-07-13T18:09:41.965Z,25.10
2018-07-13T18:12:10.481Z,25.10
2018-07-13T18:14:39.203Z,25.10
2018-07-13T18:17:07.642Z,25.10
2018-07-13T18:19:36.119Z,25.10
2018-07-13T18:22:05.630Z,25.10
2018-07-13T18:24:35.137Z,25.00
2018-07-13T18:27:03.979Z,25.00
2018-07-13T18:29:32.404Z,25.00
2018-07-13T18:32:01.568Z,25.00
2018-07-13T18:34:30.973Z,25.00
2018-07-13T18:37:00.657Z,25.00
2018-07-13T18:39:29.602Z,25.00
2018-07-13T18:42:07.760Z,25.00
2018-07-13T18:44:36.202Z,25.00
2018-07-13T18:47:04.961Z,25.00
2018-07-13T18:49:33.395Z,25.00
2018-07-13T18:52:01.957Z,25.00
2018-07-13T18:54:31.804Z,25.00
2018-07-13T18:57:01.125Z,25.00
2018-07-13T18:59:31.384Z,25.00
2018-07-13T19:02:00.970Z,25.00
2018-07-13T19:04:30.532Z,24.90
2018-07-13T19:06:59.574Z,24.90
2018-07-13T19:09:28.693Z,24.90
2018-07-13T19:11:57.337Z,24.90
2018-07-13T19:14:25.970Z,24.90
2018-07-13T19:16:54.514Z,24.90
2018-07-13T19:19:22.937Z,24.90
2018-07-13T19:21:51.475Z,24.90
2018-07-13T19:24:19.937Z,24.90
2018-07-13T19:26:48.364Z,24.90
2018-07-13T19:29:16.786Z,24.90
2018-07-13T19:31:45.366Z,24.90
2018-07-13T19:34:13.803Z,24.90
2018-07-13T19:36:42.232Z,24.90
2018-07-13T19:39:10.762Z,24.80
2018-07-13T19:41:39.225Z,24.90
2018-07-13T19:44:07.669Z,24.80
2018-07-13T19:46:36.370Z,24.80
2018-07-13T19:49:06.180Z,24.80
2018-07-13T19:51:34.801Z,24.80
2018-07-13T19:54:03.755Z,24.80
2018-07-13T19:56:32.361Z,24.80
2018-07-13T19:59:01.751Z,24.80
2018-07-13T20:01:30.261Z,24.80
2018-07-13T20:03:59.597Z,24.80
2018-07-13T20:06:28.707Z,24.80
2018-07-13T20:08:57.125Z,24.80
2018-07-13T20:11:25.767Z,24.80
2018-07-13T20:13:54.191Z,24.80
2018-07-13T20:16:23.113Z,24.70
2018-07-13T20:18:51.627Z,24.70
2018-07-13T20:23:48.538Z,24.70
2018-07-13T20:26:18.035Z,24.70
2018-07-13T20:28:46.909Z,24.70
2018-07-13T20:31:15.373Z,24.70
2018-07-13T20:33:43.887Z,24.70
2018-07-13T20:36:12.494Z,24.70
2018-07-13T20:38:41.078Z,24.70
2018-07-13T20:41:12.077Z,24.70
2018-07-13T20:43:40.730Z,24.70
2018-07-13T20:46:09.157Z,24.70
2018-07-13T20:48:37.809Z,24.70
2018-07-13T20:51:06.257Z,24.70
2018-07-13T20:53:34.705Z,24.70
2018-07-13T20:56:03.350Z,24.70
2018-07-13T20:58:31.964Z,24.60
2018-07-13T21:01:01.525Z,24.70
2018-07-13T21:03:31.116Z,24.60
2018-07-13T21:06:00.406Z,24.60
2018-07-13T21:08:29.613Z,24.60
2018-07-13T21:10:58.770Z,24.60
2018-07-13T21:13:27.240Z,24.60
2018-07-13T21:15:56.060Z,24.60
2018-07-13T21:18:24.481Z,24.60
2018-07-13T21:20:52.961Z,24.60
2018-07-13T21:23:21.375Z,24.60
2018-07-13T21:25:49.799Z,24.60
2018-07-13T21:28:18.210Z,24.60
2018-07-13T21:30:46.621Z,24.60
2018-07-13T21:33:15.052Z,24.60
2018-07-13T21:35:43.509Z,24.60
2018-07-13T21:38:11.986Z,24.60
2018-07-13T21:40:40.388Z,24.60
2018-07-13T21:43:08.809Z,24.60
2018-07-13T21:45:37.283Z,24.50
2018-07-13T21:48:05.719Z,24.60
2018-07-13T21:50:34.127Z,24.60
2018-07-13T21:53:02.537Z,24.50
2018-07-13T21:55:31.648Z,24.60
2018-07-13T21:58:01.301Z,24.60
2018-07-13T22:00:30.395Z,24.50
2018-07-13T22:03:00.178Z,24.60
2018-07-13T22:05:29.867Z,24.50
2018-07-13T22:07:58.782Z,24.50
2018-07-13T22:10:27.742Z,24.50
2018-07-13T22:12:56.147Z,24.50
2018-07-13T22:15:24.570Z,24.50
2018-07-13T22:17:52.992Z,24.50
2018-07-13T22:20:21.466Z,24.50
2018-07-13T22:22:49.878Z,24.50
2018-07-13T22:25:18.282Z,24.50
2018-07-13T22:27:46.692Z,24.50
2018-07-13T22:30:15.104Z,24.50
2018-07-13T22:32:43.527Z,24.50
2018-07-13T22:35:11.952Z,24.50
2018-07-13T22:37:40.366Z,24.50
2018-07-13T22:40:08.783Z,24.50
2018-07-13T22:42:37.187Z,24.50
2018-07-13T22:45:06.136Z,24.50
2018-07-13T22:47:34.631Z,24.50
2018-07-13T22:50:03.078Z,24.50
2018-07-13T22:52:31.475Z,24.50
2018-07-13T22:54:59.910Z,24.50
2018-07-13T22:59:56.673Z,24.40
2018-07-13T23:02:25.146Z,24.50
2018-07-13T23:04:53.548Z,24.50
2018-07-13T23:07:21.938Z,24.50
2018-07-13T23:09:50.376Z,24.50
2018-07-13T23:12:18.814Z,24.50
2018-07-13T23:14:47.276Z,24.40
2018-07-13T23:17:15.727Z,24.40
2018-07-13T23:19:44.179Z,24.40
2018-07-13T23:22:12.565Z,24.40
2018-07-13T23:24:40.980Z,24.40
2018-07-13T23:27:09.401Z,24.40
2018-07-13T23:29:37.818Z,24.40
2018-07-13T23:32:06.356Z,24.40
2018-07-13T23:34:34.795Z,24.40
2018-07-13T23:39:31.428Z,24.40
2018-07-13T23:41:59.853Z,24.40
2018-07-13T23:44:28.338Z,24.40
2018-07-13T23:46:56.801Z,24.40
2018-07-13T23:49:25.256Z,24.40
2018-07-13T23:51:53.706Z,24.40
2018-07-13T23:54:22.261Z,24.40
2018-07-13T23:56:50.720Z,24.40
2018-07-13T23:59:19.212Z,24.40
